Data for 09/11/2007

Time Sea-Level Adjusted Pressure Absolute Pressure Temperature Relative Humidity Dew Point   
(mb) (inHg) (mb) (inHg) (C) (F) (%) (C) (F)
00:05 1025 30.27 854 25.22 11.7 53.1 42 -0.8 30.5
00:10 1025 30.27 854 25.22 11.5 52.6 41 -1.2 29.8
00:15 1025 30.27 854 25.22 11.5 52.7 42 -0.9 30.3
00:20 1025 30.27 854 25.22 11.6 52.8 40 -1.5 29.2
00:25 1025 30.27 854 25.22 11.9 53.5 37 -2.2 28
00:30 1025 30.27 854 25.22 11.8 53.2 42 -0.6 30.9
00:35 1025 30.27 854 25.22 11 51.8 42 -1.2 29.8
00:40 1025 30.27 854 25.22 10.9 51.7 41 -1.9 28.6
00:45 1025 30.27 854 25.22 11.2 52.1 41 -1.7 29
00:50 1025 30.27 854 25.22 11.1 52 39 -2.2 28.1
00:55 1025 30.27 854 25.22 11.4 52.6 36 -3.2 26.3
01:00 1025 30.27 854 25.22 11.8 53.3 36 -2.6 27.4
01:05 1025 30.27 854 25.22 11.6 52.9 38 -2.3 27.8
01:10 1025 30.27 854 25.22 11.4 52.5 40 -1.8 28.8
01:15 1025 30.27 854 25.22 11.2 52.1 41 -1.6 29.1
01:20 1025 30.27 854 25.22 11 51.7 42 -1.5 29.3
01:25 1025 30.27 854 25.22 10.8 51.4 43 -1.2 29.8
01:30 1025 30.27 854 25.22 10.4 50.8 44 -1.2 29.9
01:35 1025 30.27 854 25.22 10.1 50.2 45 -1.3 29.7
01:40 1025 30.27 854 25.22 10.1 50.2 44 -1.4 29.5
01:45 1025 30.27 854 25.22 10.2 50.3 43 -1.7 29
01:50 1025 30.27 854 25.22 10.2 50.3 45 -1.1 30.1
01:55 1025 30.27 854 25.22 10 50.1 45 -1.4 29.5
02:00 1025 30.27 854 25.22 10 49.9 46 -1.2 29.8
02:05 1025 30.27 854 25.22 9.8 49.7 43 -2 28.4
02:10 1025 30.27 854 25.22 10.5 50.8 41 -2.2 28
02:15 1025 30.27 854 25.22 10.8 51.4 41 -1.8 28.7
02:20 1025 30.27 854 25.22 10.6 51.1 41 -2.2 28.1
02:25 1025 30.27 854 25.22 10.7 51.3 40 -2.1 28.2
02:30 1025 30.27 854 25.22 10.7 51.3 41 -1.8 28.7
02:35 1025 30.27 854 25.22 10.6 51.1 40 -2.3 27.9
02:40 1024 30.24 854 25.22 10.7 51.3 39 -2.8 27
02:45 1024 30.24 854 25.22 11 51.8 39 -2.4 27.6
02:50 1024 30.24 854 25.22 10.9 51.6 40 -2.2 28
02:55 1024 30.24 854 25.22 10.7 51.2 40 -2.2 28
03:00 1024 30.24 854 25.22 10.6 51 39 -2.7 27.1
03:05 1024 30.24 854 25.22 10.7 51.3 40 -2.2 28
03:10 1024 30.24 853 25.19 10.4 50.7 41 -2.2 28
03:15 1024 30.24 853 25.19 10.6 51.1 39 -2.7 27.1
03:20 1024 30.24 853 25.19 11 51.9 39 -2.2 28
03:25 1024 30.24 853 25.19 10.9 51.6 41 -1.8 28.8
03:30 1024 30.24 853 25.19 10.5 50.9 40 -2.6 27.3
03:35 1024 30.24 853 25.19 10.8 51.5 37 -3.3 26
03:40 1024 30.24 853 25.19 11.1 52 38 -2.6 27.4
03:45 1024 30.24 853 25.19 10.8 51.4 40 -2.4 27.7
03:50 1024 30.24 853 25.19 10.5 50.9 41 -2.1 28.2
03:55 1024 30.24 853 25.19 10.2 50.3 43 -1.9 28.6
04:00 1024 30.24 853 25.19 9.6 49.3 45 -1.9 28.7
04:05 1024 30.24 853 25.19 9.4 48.8 44 -2.3 27.9
04:10 1024 30.24 853 25.19 9.5 49.1 44 -2 28.4
04:15 1024 30.24 853 25.19 9.5 49 44 -2.2 28.1
04:20 1024 30.24 853 25.19 9.6 49.2 44 -2.2 28.1
04:25 1024 30.24 853 25.19 9.4 49 44 -2.1 28.2
04:30 1024 30.24 853 25.19 9.4 48.8 45 -1.9 28.5
04:35 1024 30.24 853 25.19 9.4 49 42 -2.8 27
04:40 1024 30.24 853 25.19 10 49.9 41 -2.5 27.5
04:45 1024 30.24 853 25.19 10.3 50.5 40 -2.8 26.9
04:50 1024 30.24 853 25.19 10.4 50.8 39 -2.8 26.9
04:55 1024 30.24 853 25.19 10.4 50.8 39 -2.8 26.9
05:00 1024 30.24 853 25.19 10.3 50.6 41 -2.3 27.9
05:05 1024 30.24 853 25.19 10.2 50.3 40 -2.8 26.9
05:10 1024 30.24 853 25.19 10.4 50.7 41 -2.4 27.7
05:15 1024 30.24 853 25.19 10 50.1 42 -2.1 28.1
05:20 1024 30.24 853 25.19 9.8 49.6 42 -2.6 27.3
05:25 1024 30.24 853 25.19 9.9 49.7 42 -2.5 27.5
05:30 1024 30.24 853 25.19 9.9 49.8 42 -2.5 27.5
05:35 1024 30.24 853 25.19 9.9 49.9 41 -2.6 27.4
05:40 1024 30.24 853 25.19 9.9 49.8 42 -2.3 27.9
05:45 1024 30.24 853 25.19 9.8 49.6 42 -2.6 27.3
05:50 1024 30.24 853 25.19 9.8 49.7 41 -2.6 27.3
05:55 1024 30.24 853 25.19 9.8 49.6 43 -2.3 27.9
06:00 1024 30.24 853 25.19 9.9 49.8 42 -2.3 27.9
06:05 1024 30.24 853 25.19 10.1 50.3 42 -2.3 27.9
06:10 1024 30.24 853 25.19 10.2 50.4 42 -2.1 28.3
06:15 1024 30.24 853 25.19 9.5 49 49 -0.7 30.7
06:20 1024 30.24 853 25.19 8.2 46.8 53 -0.9 30.4
06:25 1024 30.24 853 25.19 7.7 45.9 51 -1.7 29
06:30 1024 30.24 853 25.19 7.8 46.1 53 -1 30.1
06:35 1024 30.24 853 25.19 7.6 45.7 52 -1.6 29.2
06:40 1024 30.24 853 25.19 7.8 46.1 50 -1.8 28.7
06:45 1023 30.21 853 25.19 8.3 46.9 49 -1.8 28.7
06:50 1024 30.24 853 25.19 8.2 46.7 49 -2 28.4
06:55 1023 30.21 853 25.19 8.2 46.7 49 -1.9 28.6
07:00 1023 30.21 853 25.19 8.3 46.9 44 -3.1 26.4
07:05 1024 30.24 853 25.19 9.3 48.8 45 -1.9 28.5
07:10 1024 30.24 853 25.19 9.1 48.3 44 -2.5 27.5
07:15 1024 30.24 853 25.19 8.8 47.9 45 -2.4 27.7
07:20 1024 30.24 853 25.19 8.9 48 44 -2.6 27.4
07:25 1024 30.24 853 25.19 9 48.2 45 -2.4 27.7
07:30 1024 30.24 853 25.19 9 48.3 45 -2.4 27.7
07:35 1024 30.24 853 25.19 9.1 48.3 45 -2.1 28.3
07:40 1024 30.24 853 25.19 8.9 48 46 -2.1 28.2
07:45 1023 30.21 853 25.19 8.8 47.9 47 -1.9 28.6
07:50 1024 30.24 853 25.19 8.7 47.6 48 -1.7 29
07:55 1024 30.24 853 25.19 8.7 47.6 48 -1.8 28.7
08:00 1023 30.21 853 25.19 8.6 47.5 48 -1.7 28.9
08:05 1023 30.21 853 25.19 8.7 47.6 48 -1.8 28.8
08:10 1023 30.21 853 25.19 8.9 48.1 47 -1.7 28.9
08:15 1023 30.21 853 25.19 9.3 48.7 46 -1.6 29
08:20 1023 30.21 853 25.19 9.6 49.2 45 -1.7 29
08:25 1023 30.21 853 25.19 9.9 49.7 45 -1.5 29.4
08:30 1023 30.21 853 25.19 10.1 50.3 48 -0.5 31.2
08:35 1023 30.21 853 25.19 10.2 50.4 45 -1 30.1
08:40 1023 30.21 853 25.19 10.2 50.4 48 -0.3 31.4
08:45 1023 30.21 853 25.19 10.4 50.8 48 -0 32
08:50 1023 30.21 852 25.16 10.7 51.3 46 -0.3 31.4
08:55 1023 30.21 852 25.16 11.2 52.1 43 -0.8 30.6
09:00 1023 30.21 852 25.16 11.8 53.2 43 -0.5 31.2
09:05 1023 30.21 852 25.16 12.4 54.2 41 -0.6 31
09:10 1023 30.21 852 25.16 12.9 55.3 39 -0.5 31.1
09:15 1023 30.21 852 25.16 13.4 56.2 38 -0.6 30.9
09:20 1023 30.21 852 25.16 13.9 57 36 -1 30.3
09:25 1023 30.21 852 25.16 14.2 57.6 36 -0.6 30.8
09:30 1023 30.21 852 25.16 14.3 57.7 34 -1.1 30
09:35 1023 30.21 852 25.16 14.5 58 35 -0.7 30.8
09:40 1023 30.21 852 25.16 15.1 59.3 33 -0.9 30.3
09:45 1023 30.21 852 25.16 15.3 59.6 33 -0.6 30.8
09:50 1023 30.21 852 25.16 15.4 59.7 33 -0.5 31.1
09:55 1023 30.21 852 25.16 15.1 59.2 32 -1.3 29.7
10:00 1023 30.21 852 25.16 15.4 59.6 31 -1.5 29.3
10:05 1023 30.21 852 25.16 16 60.9 31 -1 30.1
10:10 1023 30.21 852 25.16 16.6 61.9 30 -0.9 30.4
10:15 1023 30.21 852 25.16 17.2 63 28 -1.3 29.7
10:20 1023 30.21 852 25.16 17.3 63.2 28 -1.4 29.5
10:25 1023 30.21 852 25.16 17 62.6 29 -0.8 30.5
10:30 1023 30.21 852 25.16 17.1 62.7 29 -0.9 30.4
10:35 1023 30.21 852 25.16 17.4 63.4 29 -0.6 30.9
10:40 1023 30.21 852 25.16 17.4 63.3 29 -0.6 31
10:45 1023 30.21 852 25.16 17.4 63.2 29 -0.8 30.5
10:50 1022 30.18 852 25.16 18.1 64.6 27 -1 30.2
10:55 1022 30.18 852 25.16 18.6 65.4 27 -0.5 31.1
11:00 1022 30.18 852 25.16 18.4 65 27 -0.9 30.4
11:05 1022 30.18 852 25.16 18.7 65.6 25 -1.6 29.1
11:10 1022 30.18 852 25.16 18.4 65.1 25 -1.9 28.7
11:15 1022 30.18 851 25.13 18 64.4 26 -1.4 29.5
11:20 1022 30.18 851 25.13 18.1 64.6 26 -1.6 29.1
11:25 1022 30.18 851 25.13 18.2 64.7 24 -2.3 27.8
11:30 1022 30.18 851 25.13 18.7 65.6 26 -1.2 29.8
11:35 1022 30.18 851 25.13 18 64.4 27 -1.2 29.9
11:40 1022 30.18 851 25.13 18.5 65.4 24 -2.5 27.4
11:45 1022 30.18 851 25.13 18.3 64.9 25 -1.8 28.8
11:50 1022 30.18 851 25.13 18.1 64.6 26 -1.6 29
11:55 1022 30.18 851 25.13 18.4 65.1 25 -2 28.4
12:00 1022 30.18 851 25.13 18.9 66 24 -1.8 28.7
12:05 1022 30.18 851 25.13 18.5 65.3 26 -1.1 30
12:10 1022 30.18 851 25.13 19.1 66.3 26 -1 30.2
12:15 1022 30.18 851 25.13 19.7 67.4 26 -0.5 31.1
12:20 1022 30.18 851 25.13 20.3 68.5 25 -0.3 31.4
12:25 1022 30.18 851 25.13 20.5 68.9 26 0.8 33.4
12:30 1022 30.18 851 25.13 19.7 67.4 27 0.2 32.3
12:35 1022 30.18 851 25.13 20.4 68.8 26 0.7 33.3
12:40 1022 30.18 851 25.13 20.4 68.8 28 1.3 34.4
12:45 1021 30.15 851 25.13 21 69.7 25 0.4 32.7
12:50 1021 30.15 851 25.13 21.3 70.3 23 -0.8 30.6
12:55 1021 30.15 851 25.13 21.3 70.3 23 -0.3 31.4
13:00 1021 30.15 850 25.1 21.9 71.4 23 0.2 32.4
13:05 1021 30.15 850 25.1 21.2 70.1 24 0.2 32.3
13:10 1021 30.15 850 25.1 22 71.6 21 -1.3 29.7
13:15 1021 30.15 850 25.1 22.6 72.7 18 -2.4 27.7
13:20 1021 30.15 850 25.1 22.5 72.5 18 -2.5 27.5
13:25 1021 30.15 850 25.1 22.2 71.9 20 -1.9 28.6
13:30 1021 30.15 850 25.1 23 73.3 18 -2.2 28.1
13:35 1021 30.15 850 25.1 23.2 73.8 20 -0.9 30.3
13:40 1021 30.15 850 25.1 22.5 72.5 21 -0.8 30.6
13:45 1021 30.15 850 25.1 23.1 73.6 19 -1.6 29.1
13:50 1021 30.15 850 25.1 24.4 75.9 18 -1.2 29.9
13:55 1021 30.15 850 25.1 25.2 77.3 17 -1.1 30
14:00 1021 30.15 850 25.1 24.7 76.4 18 -0.7 30.7
14:05 1021 30.15 850 25.1 24.4 76 18 -1.2 29.9
14:10 1021 30.15 850 25.1 23.9 75 18 -1.3 29.6
14:15 1021 30.15 850 25.1 23.5 74.3 18 -1.8 28.8
14:20 1020 30.12 850 25.1 24.9 76.7 16 -2.8 27
14:25 1020 30.12 850 25.1 25.9 78.5 16 -1.4 29.6
14:30 1020 30.12 849 25.07 26 78.8 15 -2.3 27.8
14:35 1020 30.12 849 25.07 26.4 79.5 15 -1.9 28.5
14:40 1020 30.12 849 25.07 26.5 79.7 15 -1.9 28.6
14:45 1020 30.12 849 25.07 26.3 79.4 14 -2.6 27.2
14:50 1020 30.12 849 25.07 26.6 79.8 14 -3 26.6
14:55 1020 30.12 849 25.07 26.9 80.4 14 -2.2 28
15:00 1020 30.12 849 25.07 26.9 80.4 14 -2.4 27.7
15:05 1020 30.12 849 25.07 26.6 79.9 15 -2.1 28.2
15:10 1020 30.12 849 25.07 27.1 80.7 14 -2.3 27.9
15:15 1020 30.12 849 25.07 27.2 80.9 14 -2.2 28
15:20 1020 30.12 849 25.07 27 80.6 14 -2.5 27.5
15:25 1019 30.09 849 25.07 26.7 80 14 -3.1 26.4
15:30 1019 30.09 849 25.07 26.1 78.9 14 -2.8 26.9
15:35 1019 30.09 849 25.07 25.7 78.2 15 -2.8 27
15:40 1019 30.09 849 25.07 26.1 79 14 -2.9 26.9
15:45 1019 30.09 848 25.04 26.9 80.5 14 -3 26.6
15:50 1019 30.09 848 25.04 27.7 81.9 13 -2.8 26.9
15:55 1019 30.09 848 25.04 27.6 81.6 14 -1.6 29.2
16:00 1019 30.09 848 25.04 27.3 81.2 14 -2.7 27.2
16:05 1019 30.09 848 25.04 27.1 80.9 13 -3 26.6
16:10 1019 30.09 848 25.04 27.3 81.1 13 -3.3 26.1
16:15 1019 30.09 848 25.04 27.5 81.5 14 -2.5 27.4
16:20 1019 30.09 848 25.04 27.2 81 14 -2.5 27.5
16:25 1019 30.09 848 25.04 26.7 80.1 14 -3.1 26.5
16:30 1019 30.09 848 25.04 26.7 80.1 14 -2.9 26.8
16:35 1019 30.09 848 25.04 26.6 79.9 14 -2.7 27.1
16:40 1019 30.09 848 25.04 26.7 80.1 14 -3.2 26.3
16:45 1019 30.09 848 25.04 26.8 80.2 13 -3.4 26
16:50 1019 30.09 848 25.04 25.9 78.6 14 -3.5 25.8
16:55 1019 30.09 848 25.04 25.6 78 14 -3.6 25.5
17:00 1019 30.09 848 25.04 26.1 78.9 14 -3 26.7
17:05 1019 30.09 848 25.04 26 78.8 15 -2.8 27
17:10 1018 30.06 848 25.04 26.5 79.7 14 -3.2 26.3
17:15 1018 30.06 848 25.04 27.2 80.9 13 -3 26.6
17:20 1018 30.06 848 25.04 27.5 81.6 13 -3 26.7
17:25 1018 30.06 848 25.04 27.4 81.2 13 -3.2 26.2
17:30 1018 30.06 847 25.01 27 80.6 14 -2.4 27.6
17:35 1018 30.06 847 25.01 27.2 80.9 13 -3.4 25.8
17:40 1018 30.06 847 25.01 27.3 81.1 13 -2.9 26.8
17:45 1018 30.06 847 25.01 27.5 81.5 14 -2.5 27.4
17:50 1018 30.06 847 25.01 27.5 81.4 14 -1.8 28.8
17:55 1018 30.06 847 25.01 27.3 81.1 14 -2.5 27.6
18:00 1018 30.06 847 25.01 27.2 80.9 14 -2.4 27.7
18:05 1018 30.06 847 25.01 26.9 80.3 14 -2.6 27.4
18:10 1018 30.06 847 25.01 26.9 80.3 14 -2.6 27.4
18:15 1018 30.06 847 25.01 26.9 80.4 14 -2.6 27.4
18:20 1018 30.06 847 25.01 26.5 79.6 15 -2.3 27.9
18:25 1018 30.06 847 25.01 26 78.8 15 -2.6 27.3
18:30 1018 30.06 847 25.01 25.5 78 15 -2.8 27
18:35 1018 30.06 847 25.01 25.3 77.5 15 -3 26.7
18:40 1018 30.06 847 25.01 25.1 77.2 16 -1.9 28.6
18:45 1018 30.06 847 25.01 25 76.9 18 -0.5 31.1
18:50 1018 30.06 847 25.01 24.4 76 19 -0.5 31.1
18:55 1018 30.06 847 25.01 24 75.1 20 -0.3 31.5
19:00 1018 30.06 847 25.01 23.7 74.7 20 -0.3 31.4
19:05 1018 30.06 847 25.01 23.7 74.6 21 0 32
19:10 1018 30.06 847 25.01 23.5 74.3 21 0.4 32.6
19:15 1018 30.06 847 25.01 23.2 73.7 26 2.7 36.9
19:20 1018 30.06 847 25.01 22.7 72.9 30 4.3 39.7
19:25 1018 30.06 847 25.01 22.2 71.9 26 2.2 36
19:30 1018 30.06 847 25.01 21.5 70.7 28 2.4 36.2
19:35 1018 30.06 847 25.01 21.1 69.9 31 3.7 38.6
19:40 1018 30.06 847 25.01 20.8 69.4 31 3.2 37.7
19:45 1018 30.06 847 25.01 20.1 68.2 30 2.2 35.9
19:50 1018 30.06 847 25.01 19.6 67.2 31 2.3 36.1
19:55 1018 30.06 847 25.01 19.1 66.4 32 2.1 35.8
20:00 1018 30.06 847 25.01 18.8 65.9 31 1.6 34.9
20:05 1018 30.06 847 25.01 18.5 65.3 33 2.1 35.8
20:10 1018 30.06 847 25.01 18.3 65 32 1.5 34.7
20:15 1018 30.06 847 25.01 18.1 64.6 36 2.9 37.3
20:20 1018 30.06 847 25.01 18 64.4 33 1.6 34.9
20:25 1018 30.06 847 25.01 17.7 63.8 35 2 35.6
20:30 1018 30.06 847 25.01 17.1 62.9 35 1.8 35.2
20:35 1018 30.06 847 25.01 16.7 62 36 1.5 34.7
20:40 1018 30.06 847 25.01 16.4 61.5 40 2.9 37.3
20:45 1018 30.06 847 25.01 16.3 61.4 36 1.2 34.2
20:50 1018 30.06 847 25.01 16.2 61.1 35 0.7 33.3
20:55 1018 30.06 847 25.01 16.1 61 35 0.9 33.6
21:00 1018 30.06 847 25.01 16 60.7 35 0.7 33.2
21:05 1018 30.06 847 25.01 15.8 60.5 35 0.5 32.8
21:10 1018 30.06 847 25.01 15.8 60.4 34 -0.1 31.8
21:15 1018 30.06 847 25.01 15.9 60.7 33 -0.1 31.9
21:20 1018 30.06 847 25.01 16 60.7 33 -0.1 31.8
21:25 1018 30.06 847 25.01 16 60.7 33 -0.2 31.6
21:30 1018 30.06 847 25.01 16 60.7 32 -0.4 31.2
21:35 1018 30.06 847 25.01 16 60.8 31 -0.9 30.5
21:40 1018 30.06 847 25.01 16 60.8 32 -0.8 30.6
21:45 1018 30.06 847 25.01 15.9 60.7 31 -1 30.2
21:50 1018 30.06 847 25.01 16.1 61 30 -1.5 29.3
21:55 1018 30.06 847 25.01 16.3 61.4 29 -1.6 29.1
22:00 1018 30.06 847 25.01 16.6 61.9 28 -1.9 28.5
22:05 1018 30.06 847 25.01 16.6 61.9 29 -1.5 29.4
22:10 1018 30.06 847 25.01 16.4 61.4 30 -1.3 29.7
22:15 1018 30.06 847 25.01 16.1 60.9 30 -1.4 29.4
22:20 1018 30.06 847 25.01 15.9 60.7 29 -2 28.4
22:25 1018 30.06 847 25.01 16.2 61.2 28 -2.4 27.6
22:30 1018 30.06 847 25.01 16.5 61.6 28 -2.1 28.2
22:35 1018 30.06 847 25.01 16.5 61.7 28 -2.2 28.1
22:40 1018 30.06 847 25.01 16.5 61.7 30 -1 30.3
22:45 1018 30.06 847 25.01 16.4 61.6 28 -2 28.4
22:50 1018 30.06 847 25.01 16.8 62.2 26 -2.7 27.1
22:55 1018 30.06 847 25.01 17 62.6 28 -1.5 29.3
23:00 1018 30.06 847 25.01 17.4 63.4 26 -2 28.4
23:05 1018 30.06 847 25.01 17.2 63 26 -2.4 27.7
23:10 1018 30.06 847 25.01 16.9 62.4 27 -2 28.4
23:15 1018 30.06 847 25.01 16.5 61.6 28 -2.1 28.2
23:20 1018 30.06 847 25.01 16.2 61.1 27 -3 26.6
23:25 1018 30.06 847 25.01 16.1 60.9 29 -1.8 28.7
23:30 1018 30.06 847 25.01 15.9 60.7 29 -2.1 28.3
23:35 1018 30.06 847 25.01 15.7 60.3 29 -2.4 27.7
23:40 1018 30.06 847 25.01 15.6 60 29 -2.1 28.2
23:45 1018 30.06 847 25.01 15.5 59.8 30 -2.1 28.2
23:50 1018 30.06 847 25.01 15.3 59.5 30 -2 28.4
23:55 1018 30.06 847 25.01 15.4 59.7 30 -1.8 28.7
24:00 1018 30.06 847 25.01 15.4 59.8 29 -2.2 28